createdAt,value
2018-08-24T00:00:40.985Z,97.31
2018-08-24T00:01:41.456Z,97.30
2018-08-24T00:02:41.932Z,97.34
2018-08-24T00:03:42.408Z,97.35
2018-08-24T00:04:43.059Z,97.33
2018-08-24T00:05:43.355Z,97.35
2018-08-24T00:06:43.829Z,97.39
2018-08-24T00:07:44.306Z,97.37
2018-08-24T00:08:44.780Z,97.41
2018-08-24T00:09:45.253Z,97.36
2018-08-24T00:10:45.724Z,97.38
2018-08-24T00:11:46.199Z,97.39
2018-08-24T00:12:46.673Z,97.42
2018-08-24T00:13:47.144Z,97.41
2018-08-24T00:14:47.669Z,97.45
2018-08-24T00:15:48.091Z,97.42
2018-08-24T00:16:48.565Z,97.48
2018-08-24T00:17:49.035Z,97.44
2018-08-24T00:18:49.510Z,97.44
2018-08-24T00:19:49.980Z,97.47
2018-08-24T00:20:50.457Z,97.46
2018-08-24T00:21:50.925Z,97.49
2018-08-24T00:22:51.400Z,97.48
2018-08-24T00:23:51.870Z,97.47
2018-08-24T00:24:52.341Z,97.50
2018-08-24T00:25:52.814Z,97.49
2018-08-24T00:26:53.284Z,97.50
2018-08-24T00:27:53.757Z,97.50
2018-08-24T00:28:54.227Z,97.52
2018-08-24T00:29:54.697Z,97.54
2018-08-24T00:30:55.172Z,97.53
2018-08-24T00:31:55.640Z,97.49
2018-08-24T00:32:56.111Z,97.57
2018-08-24T00:33:56.582Z,97.57
2018-08-24T00:34:57.054Z,97.57
2018-08-24T00:35:57.524Z,97.56
2018-08-24T00:36:57.996Z,97.58
2018-08-24T00:37:58.465Z,97.58
2018-08-24T00:38:58.935Z,97.57
2018-08-24T00:39:59.434Z,97.59
2018-08-24T00:40:59.880Z,97.60
2018-08-24T00:42:00.354Z,97.64
2018-08-24T00:43:00.821Z,97.59
2018-08-24T00:44:01.294Z,97.59
2018-08-24T00:45:01.846Z,97.63
2018-08-24T00:46:02.236Z,97.64
2018-08-24T00:47:02.709Z,97.63
2018-08-24T00:48:03.180Z,97.63
2018-08-24T00:49:03.652Z,97.67
2018-08-24T00:50:04.124Z,97.64
2018-08-24T00:51:04.600Z,97.65
2018-08-24T00:52:05.070Z,97.66
2018-08-24T00:53:05.543Z,97.66
2018-08-24T00:54:06.020Z,97.65
2018-08-24T00:55:06.488Z,97.67
2018-08-24T00:56:06.965Z,97.66
2018-08-24T00:57:07.436Z,97.63
2018-08-24T00:58:07.908Z,97.66
2018-08-24T00:59:08.383Z,97.68
2018-08-24T01:00:08.862Z,97.67
2018-08-24T01:01:09.334Z,97.65
2018-08-24T01:02:09.806Z,97.71
2018-08-24T01:03:10.280Z,97.69
2018-08-24T01:04:10.754Z,97.69
2018-08-24T01:05:11.231Z,97.70
2018-08-24T01:06:11.704Z,97.68
2018-08-24T01:07:12.179Z,97.69
2018-08-24T01:08:12.655Z,97.69
2018-08-24T01:09:13.130Z,97.68
2018-08-24T01:10:13.602Z,97.69
2018-08-24T01:11:14.076Z,97.70
2018-08-24T01:12:14.552Z,97.71
2018-08-24T01:13:15.028Z,97.71
2018-08-24T01:14:15.704Z,97.73
2018-08-24T01:15:15.977Z,97.78
2018-08-24T01:16:16.451Z,97.72
2018-08-24T01:17:16.925Z,97.74
2018-08-24T01:18:17.400Z,97.76
2018-08-24T01:19:17.873Z,97.78
2018-08-24T01:20:18.347Z,97.77
2018-08-24T01:21:18.821Z,97.79
2018-08-24T01:22:19.293Z,97.78
2018-08-24T01:23:19.767Z,97.75
2018-08-24T01:24:20.240Z,97.78
2018-08-24T01:25:20.714Z,97.80
2018-08-24T01:26:21.189Z,97.78
2018-08-24T01:27:21.666Z,97.79
2018-08-24T01:28:22.131Z,97.81
2018-08-24T01:29:22.605Z,97.79
2018-08-24T01:30:23.129Z,97.80
2018-08-24T01:31:23.551Z,97.82
2018-08-24T01:32:24.020Z,97.81
2018-08-24T01:33:24.492Z,97.81
2018-08-24T01:34:24.963Z,97.81
2018-08-24T01:35:25.436Z,97.81
2018-08-24T01:36:25.910Z,97.80
2018-08-24T01:37:26.380Z,97.84
2018-08-24T01:38:26.850Z,97.85
2018-08-24T01:39:27.322Z,97.83
2018-08-24T01:40:27.797Z,97.80
2018-08-24T01:41:28.264Z,97.79
2018-08-24T01:42:28.736Z,97.81
2018-08-24T01:43:29.205Z,97.82
2018-08-24T01:44:29.678Z,97.82
2018-08-24T01:45:30.198Z,97.83
2018-08-24T01:46:30.617Z,97.84
2018-08-24T01:47:31.088Z,97.83
2018-08-24T01:48:31.560Z,97.83
2018-08-24T01:49:32.032Z,97.84
2018-08-24T01:50:32.500Z,97.87
2018-08-24T01:51:32.972Z,97.85
2018-08-24T01:52:33.442Z,97.85
2018-08-24T01:53:33.914Z,97.85
2018-08-24T01:54:34.384Z,97.86
2018-08-24T01:55:34.858Z,97.84
2018-08-24T01:56:35.328Z,97.89
2018-08-24T01:57:35.798Z,97.87
2018-08-24T01:58:36.271Z,97.90
2018-08-24T01:59:36.747Z,97.90
2018-08-24T02:00:37.265Z,97.92
2018-08-24T02:01:37.688Z,97.89
2018-08-24T02:02:38.159Z,97.89
2018-08-24T02:03:38.632Z,97.90
2018-08-24T02:04:39.105Z,97.89
2018-08-24T02:05:39.577Z,97.88
2018-08-24T02:06:40.051Z,97.92
2018-08-24T02:07:40.523Z,97.90
2018-08-24T02:08:40.996Z,97.91
2018-08-24T02:09:41.473Z,97.90
2018-08-24T02:10:41.966Z,97.88
2018-08-24T02:11:42.417Z,97.90
2018-08-24T02:12:42.896Z,97.92
2018-08-24T02:13:43.367Z,97.91
2018-08-24T02:14:43.840Z,97.90
2018-08-24T02:15:44.366Z,97.90
2018-08-24T02:16:44.790Z,97.90
2018-08-24T02:17:45.265Z,97.91
2018-08-24T02:18:45.738Z,97.91
2018-08-24T02:19:46.213Z,97.90
2018-08-24T02:20:46.689Z,97.91
2018-08-24T02:21:47.167Z,97.90
2018-08-24T02:22:47.638Z,97.89
2018-08-24T02:23:48.113Z,97.88
2018-08-24T02:24:48.587Z,97.88
2018-08-24T02:25:49.065Z,97.88
2018-08-24T02:26:49.535Z,97.89
2018-08-24T02:27:50.010Z,97.89
2018-08-24T02:28:50.482Z,97.89
2018-08-24T02:29:50.959Z,97.89
2018-08-24T02:30:51.632Z,97.90
2018-08-24T02:31:51.908Z,97.86
2018-08-24T02:32:52.378Z,97.86
2018-08-24T02:33:52.852Z,97.85
2018-08-24T02:34:53.323Z,97.85
2018-08-24T02:35:53.796Z,97.87
2018-08-24T02:36:54.271Z,97.86
2018-08-24T02:37:54.743Z,97.84
2018-08-24T02:38:55.218Z,97.87
2018-08-24T02:39:55.691Z,97.87
2018-08-24T02:40:56.161Z,97.88
2018-08-24T02:41:56.633Z,97.85
2018-08-24T02:42:57.102Z,97.89
2018-08-24T02:43:57.580Z,97.85
2018-08-24T02:44:58.071Z,97.86
2018-08-24T02:45:58.571Z,97.85
2018-08-24T02:46:58.993Z,97.84
2018-08-24T02:47:59.463Z,97.84
2018-08-24T02:48:59.933Z,97.86
2018-08-24T02:50:00.406Z,97.88
2018-08-24T02:51:00.875Z,97.87
2018-08-24T02:52:01.353Z,97.87
2018-08-24T02:53:01.817Z,97.88
2018-08-24T02:54:02.292Z,97.88
2018-08-24T02:55:02.762Z,97.88
2018-08-24T02:56:03.228Z,97.87
2018-08-24T02:57:03.700Z,97.87
2018-08-24T02:58:04.170Z,97.87
2018-08-24T02:59:04.643Z,97.88
2018-08-24T03:00:05.111Z,97.89
2018-08-24T03:01:05.582Z,97.88
2018-08-24T03:02:06.056Z,97.88
2018-08-24T03:03:06.526Z,97.88
2018-08-24T03:04:06.996Z,97.88
2018-08-24T03:05:07.512Z,97.87
2018-08-24T03:06:07.937Z,97.89
2018-08-24T03:07:08.416Z,97.86
2018-08-24T03:08:08.909Z,97.88
2018-08-24T03:09:09.356Z,97.90
2018-08-24T03:10:09.826Z,97.89
2018-08-24T03:11:10.296Z,97.90
2018-08-24T03:12:10.769Z,97.89
2018-08-24T03:13:11.241Z,97.90
2018-08-24T03:14:11.717Z,97.90
2018-08-24T03:15:12.187Z,97.90
2018-08-24T03:16:12.671Z,97.89
2018-08-24T03:17:13.132Z,97.89
2018-08-24T03:18:13.607Z,97.93
2018-08-24T03:19:14.079Z,97.89
2018-08-24T03:20:14.551Z,97.93
2018-08-24T03:21:15.027Z,97.89
2018-08-24T03:22:15.502Z,97.93
2018-08-24T03:23:15.976Z,97.92
2018-08-24T03:24:16.448Z,97.92
2018-08-24T03:25:16.922Z,97.91
2018-08-24T03:26:17.400Z,97.91
2018-08-24T03:27:17.871Z,97.93
2018-08-24T03:28:18.346Z,97.93
2018-08-24T03:29:18.822Z,97.93
2018-08-24T03:30:19.298Z,97.93
2018-08-24T03:31:19.771Z,97.95
2018-08-24T03:32:20.244Z,97.95
2018-08-24T03:33:20.721Z,97.94
2018-08-24T03:34:21.195Z,97.94
2018-08-24T03:35:21.669Z,97.94
2018-08-24T03:36:22.144Z,97.95
2018-08-24T03:37:22.623Z,97.96
2018-08-24T03:38:23.092Z,97.96
2018-08-24T03:39:23.564Z,97.95
2018-08-24T03:40:24.039Z,97.97
2018-08-24T03:41:24.515Z,97.96
2018-08-24T03:42:24.998Z,97.95
2018-08-24T03:43:25.461Z,97.96
2018-08-24T03:44:25.935Z,97.97
2018-08-24T03:45:26.407Z,97.96
2018-08-24T03:46:26.885Z,97.96
2018-08-24T03:47:27.355Z,97.96
2018-08-24T03:48:27.829Z,97.98
2018-08-24T03:49:28.299Z,97.97
2018-08-24T03:50:28.771Z,97.99
2018-08-24T03:51:29.243Z,97.98
2018-08-24T03:52:29.715Z,98.00
2018-08-24T03:53:30.190Z,97.98
2018-08-24T03:54:30.658Z,97.99
2018-08-24T03:55:31.134Z,98.00
2018-08-24T03:56:31.654Z,98.00
2018-08-24T03:57:32.074Z,98.00
2018-08-24T03:58:32.546Z,97.99
2018-08-24T03:59:33.015Z,98.00
2018-08-24T04:00:33.490Z,97.99
2018-08-24T04:01:33.958Z,98.00
2018-08-24T04:02:34.432Z,98.00
2018-08-24T04:03:34.899Z,97.99
2018-08-24T04:04:35.371Z,97.99
2018-08-24T04:05:35.842Z,98.00
2018-08-24T04:06:36.315Z,98.04
2018-08-24T04:07:36.782Z,98.02
2018-08-24T04:08:37.260Z,98.00
2018-08-24T04:09:37.725Z,98.01
2018-08-24T04:10:38.194Z,98.01
2018-08-24T04:11:38.665Z,98.01
2018-08-24T04:12:39.140Z,97.99
2018-08-24T04:13:39.607Z,98.00
2018-08-24T04:14:40.080Z,98.00
2018-08-24T04:15:40.550Z,98.01
2018-08-24T04:16:41.021Z,98.03
2018-08-24T04:17:41.491Z,98.03
2018-08-24T04:18:41.965Z,98.03
2018-08-24T04:19:42.436Z,98.01
2018-08-24T04:20:42.907Z,98.02
2018-08-24T04:21:43.382Z,98.05
2018-08-24T04:22:43.902Z,98.04
2018-08-24T04:23:44.322Z,98.05
2018-08-24T04:24:44.812Z,98.05
2018-08-24T04:25:45.294Z,98.05
2018-08-24T04:26:45.740Z,98.05
2018-08-24T04:27:46.214Z,98.05
2018-08-24T04:28:46.687Z,98.05
2018-08-24T04:29:47.160Z,98.05
2018-08-24T04:30:47.637Z,98.05
2018-08-24T04:31:48.108Z,98.05
2018-08-24T04:32:48.580Z,98.04
2018-08-24T04:33:49.055Z,98.04
2018-08-24T04:34:49.588Z,98.03
2018-08-24T04:35:50.012Z,98.05
2018-08-24T04:36:50.477Z,98.05
2018-08-24T04:37:50.955Z,98.06
2018-08-24T04:38:51.427Z,98.02
2018-08-24T04:39:51.902Z,98.03
2018-08-24T04:40:52.375Z,98.03
2018-08-24T04:41:52.904Z,98.03
2018-08-24T04:42:53.325Z,98.05
2018-08-24T04:43:53.799Z,98.01
2018-08-24T04:44:54.276Z,98.02
2018-08-24T04:45:54.749Z,98.03
2018-08-24T04:46:55.224Z,98.02
2018-08-24T04:47:55.697Z,97.99
2018-08-24T04:48:56.172Z,97.99
2018-08-24T04:49:56.646Z,97.99
2018-08-24T04:50:57.120Z,97.97
2018-08-24T04:51:57.594Z,97.95
2018-08-24T04:52:58.067Z,97.94
2018-08-24T04:53:58.543Z,97.92
2018-08-24T04:54:59.015Z,97.88
2018-08-24T04:55:59.487Z,97.85
2018-08-24T04:56:59.961Z,97.83
2018-08-24T04:58:00.434Z,97.77
2018-08-24T04:59:00.906Z,97.72
2018-08-24T05:00:01.379Z,97.64
2018-08-24T05:01:01.853Z,97.56
2018-08-24T05:02:02.324Z,97.48
2018-08-24T05:03:02.795Z,97.41
2018-08-24T05:04:03.268Z,97.36
2018-08-24T05:05:03.741Z,97.28
2018-08-24T05:06:04.212Z,97.23
2018-08-24T05:07:04.737Z,97.17
2018-08-24T05:08:05.157Z,97.13
2018-08-24T05:09:05.628Z,97.10
2018-08-24T05:10:06.098Z,97.07
2018-08-24T05:11:06.569Z,97.08
2018-08-24T05:12:07.046Z,97.09
2018-08-24T05:13:07.512Z,97.10
2018-08-24T05:14:07.986Z,97.12
2018-08-24T05:15:08.452Z,97.16
2018-08-24T05:16:08.923Z,97.17
2018-08-24T05:17:09.394Z,97.19
2018-08-24T05:18:09.865Z,97.18
2018-08-24T05:19:10.334Z,97.18
2018-08-24T05:20:10.804Z,97.17
2018-08-24T05:21:11.338Z,97.04
2018-08-24T05:22:11.747Z,96.96
2018-08-24T05:23:12.217Z,96.89
2018-08-24T05:24:12.688Z,96.67
2018-08-24T05:25:13.160Z,96.41
2018-08-24T05:26:13.630Z,96.18
2018-08-24T05:27:14.103Z,96.13
2018-08-24T05:28:14.635Z,95.89
2018-08-24T05:29:15.046Z,95.42
2018-08-24T05:30:15.517Z,94.91
2018-08-24T05:31:15.990Z,94.60
2018-08-24T05:32:16.459Z,94.16
2018-08-24T05:33:16.931Z,93.58
2018-08-24T05:34:17.404Z,92.49
2018-08-24T05:35:17.876Z,91.59
2018-08-24T05:36:18.350Z,91.16
2018-08-24T05:37:18.820Z,91.51
2018-08-24T05:38:19.296Z,91.71
2018-08-24T05:39:19.771Z,91.68
2018-08-24T05:40:20.238Z,91.99
2018-08-24T05:41:20.754Z,92.46
2018-08-24T05:42:21.186Z,93.02
2018-08-24T05:43:21.663Z,93.48
2018-08-24T05:44:22.133Z,93.97
2018-08-24T05:45:22.610Z,94.22
2018-08-24T05:46:23.084Z,94.07
2018-08-24T05:47:23.559Z,93.20
2018-08-24T05:48:24.032Z,92.77
2018-08-24T05:49:24.507Z,92.61
2018-08-24T05:50:24.982Z,92.64
2018-08-24T05:51:25.457Z,92.81
2018-08-24T05:52:25.980Z,92.90
2018-08-24T05:53:26.405Z,93.08
2018-08-24T05:54:26.879Z,93.28
2018-08-24T05:55:27.357Z,93.61
2018-08-24T05:56:27.827Z,93.53
2018-08-24T05:57:28.306Z,93.29
2018-08-24T05:58:28.777Z,92.52
2018-08-24T05:59:29.256Z,92.39
2018-08-24T06:00:29.729Z,92.54
2018-08-24T06:01:30.201Z,92.64
2018-08-24T06:02:30.674Z,92.78
2018-08-24T06:03:31.145Z,92.94
2018-08-24T06:04:31.618Z,92.93
2018-08-24T06:05:32.140Z,92.99
2018-08-24T06:06:32.566Z,93.26
2018-08-24T06:07:33.044Z,93.46
2018-08-24T06:08:33.515Z,93.21
2018-08-24T06:09:33.986Z,93.42
2018-08-24T06:10:34.456Z,93.70
2018-08-24T06:11:34.930Z,94.06
2018-08-24T06:12:35.402Z,94.22
2018-08-24T06:13:35.873Z,94.39
2018-08-24T06:14:36.345Z,94.54
2018-08-24T06:15:36.817Z,94.68
2018-08-24T06:16:37.305Z,94.79
2018-08-24T06:17:37.761Z,94.82
2018-08-24T06:18:38.237Z,94.92
2018-08-24T06:19:38.706Z,95.09
2018-08-24T06:20:39.174Z,95.16
2018-08-24T06:21:39.648Z,95.19
2018-08-24T06:22:40.118Z,95.30
2018-08-24T06:23:40.591Z,95.42
2018-08-24T06:24:41.061Z,95.51
2018-08-24T06:25:41.528Z,95.56
2018-08-24T06:26:42.000Z,95.59
2018-08-24T06:27:42.474Z,95.65
2018-08-24T06:28:42.987Z,95.69
2018-08-24T06:29:43.412Z,95.75
2018-08-24T06:30:43.884Z,95.79
2018-08-24T06:31:44.356Z,95.82
2018-08-24T06:32:44.889Z,95.82
2018-08-24T06:33:45.294Z,95.87
2018-08-24T06:34:45.768Z,95.86
2018-08-24T06:35:46.238Z,95.90
2018-08-24T06:36:46.710Z,95.93
2018-08-24T06:37:47.179Z,96.00
2018-08-24T06:38:47.652Z,96.08
2018-08-24T06:39:48.124Z,96.14
2018-08-24T06:40:48.594Z,96.19
2018-08-24T06:41:49.132Z,96.26
2018-08-24T06:42:49.537Z,96.32
2018-08-24T06:43:50.009Z,96.37
2018-08-24T06:44:50.483Z,96.46
2018-08-24T06:45:50.955Z,96.50
2018-08-24T06:46:51.429Z,96.51
2018-08-24T06:47:51.902Z,96.52
2018-08-24T06:48:52.377Z,96.45
2018-08-24T06:49:52.847Z,96.43
2018-08-24T06:50:53.325Z,96.35
2018-08-24T06:51:53.793Z,96.32
2018-08-24T06:52:54.308Z,96.25
2018-08-24T06:53:54.804Z,96.21
2018-08-24T06:54:55.214Z,96.12
2018-08-24T06:55:55.692Z,96.08
2018-08-24T06:56:56.162Z,95.92
2018-08-24T06:57:56.638Z,95.86
2018-08-24T06:58:57.112Z,95.85
2018-08-24T06:59:57.587Z,95.90
2018-08-24T07:00:58.059Z,95.87
2018-08-24T07:01:58.536Z,95.83
2018-08-24T07:02:59.015Z,95.77
2018-08-24T07:03:59.484Z,95.76
2018-08-24T07:04:59.959Z,95.76
2018-08-24T07:06:00.444Z,95.73
2018-08-24T07:07:00.908Z,95.71
2018-08-24T07:08:01.383Z,95.70
2018-08-24T07:09:01.856Z,95.67
2018-08-24T07:10:02.329Z,95.69
2018-08-24T07:11:02.805Z,95.68
2018-08-24T07:12:03.278Z,95.71
2018-08-24T07:13:03.829Z,95.68
2018-08-24T07:14:04.226Z,95.62
2018-08-24T07:15:04.699Z,95.61
2018-08-24T07:16:05.176Z,95.57
2018-08-24T07:17:05.645Z,95.49
2018-08-24T07:18:06.164Z,95.45
2018-08-24T07:19:06.595Z,95.42
2018-08-24T07:20:07.100Z,95.41
2018-08-24T07:21:07.538Z,95.45
2018-08-24T07:22:08.011Z,95.55
2018-08-24T07:23:08.488Z,95.68
2018-08-24T07:24:08.955Z,95.75
2018-08-24T07:25:09.460Z,95.86
2018-08-24T07:26:09.899Z,95.94
2018-08-24T07:27:10.374Z,96.02
2018-08-24T07:28:10.841Z,96.09
2018-08-24T07:29:11.313Z,96.13
2018-08-24T07:30:11.787Z,96.17
2018-08-24T07:31:12.257Z,96.21
2018-08-24T07:32:12.730Z,96.21
2018-08-24T07:33:13.198Z,96.18
2018-08-24T07:34:13.670Z,96.16
2018-08-24T07:35:14.140Z,96.02
2018-08-24T07:36:14.612Z,95.82
2018-08-24T07:37:15.083Z,95.51
2018-08-24T07:38:15.604Z,95.13
2018-08-24T07:39:16.023Z,94.93
2018-08-24T07:40:16.496Z,94.68
2018-08-24T07:41:17.019Z,94.57
2018-08-24T07:42:17.436Z,94.44
2018-08-24T07:43:17.905Z,94.40
2018-08-24T07:44:18.376Z,94.36
2018-08-24T07:45:18.852Z,94.25
2018-08-24T07:46:19.319Z,94.23
2018-08-24T07:47:19.797Z,94.05
2018-08-24T07:48:20.313Z,93.80
2018-08-24T07:49:20.733Z,93.75
2018-08-24T07:50:21.204Z,93.52
2018-08-24T07:51:21.677Z,93.24
2018-08-24T07:52:22.153Z,93.33
2018-08-24T07:53:22.620Z,93.20
2018-08-24T07:54:23.093Z,93.22
2018-08-24T07:55:23.565Z,93.53
2018-08-24T07:56:24.037Z,93.79
2018-08-24T07:57:24.511Z,94.05
2018-08-24T07:58:24.983Z,94.00
2018-08-24T07:59:25.459Z,93.89
2018-08-24T08:00:25.932Z,93.82
2018-08-24T08:01:26.402Z,93.90
2018-08-24T08:02:26.879Z,94.02
2018-08-24T08:03:27.352Z,94.06
2018-08-24T08:04:27.825Z,94.15
2018-08-24T08:05:28.375Z,94.30
2018-08-24T08:06:28.773Z,94.47
2018-08-24T08:07:29.247Z,94.59
2018-08-24T08:08:29.724Z,94.65
2018-08-24T08:09:30.198Z,94.57
2018-08-24T08:10:30.672Z,94.63
2018-08-24T08:11:31.148Z,94.51
2018-08-24T08:12:31.668Z,94.39
2018-08-24T08:13:32.099Z,94.27
2018-08-24T08:14:32.571Z,94.33
2018-08-24T08:15:33.047Z,94.34
2018-08-24T08:16:33.524Z,94.41
2018-08-24T08:17:33.994Z,94.46
2018-08-24T08:18:34.499Z,94.51
2018-08-24T08:19:34.946Z,94.52
2018-08-24T08:20:35.421Z,94.41
2018-08-24T08:21:35.895Z,94.30
2018-08-24T08:22:36.369Z,94.30
2018-08-24T08:23:36.877Z,94.36
2018-08-24T08:24:37.333Z,94.47
2018-08-24T08:25:37.794Z,94.69
2018-08-24T08:26:38.270Z,94.73
2018-08-24T08:27:38.744Z,94.80
2018-08-24T08:28:39.225Z,94.87
2018-08-24T08:29:39.695Z,95.00
2018-08-24T08:30:40.174Z,95.14
2018-08-24T08:31:40.651Z,94.97
2018-08-24T08:32:41.129Z,94.77
2018-08-24T08:33:41.654Z,94.52
2018-08-24T08:34:42.084Z,94.48
2018-08-24T08:35:42.565Z,94.02
2018-08-24T08:36:43.042Z,93.96
2018-08-24T08:37:43.524Z,93.95
2018-08-24T08:38:43.998Z,93.46
2018-08-24T08:39:44.495Z,93.45
2018-08-24T08:40:44.955Z,93.09
2018-08-24T08:41:45.437Z,93.07
2018-08-24T08:42:45.909Z,93.17
2018-08-24T08:43:46.387Z,93.40
2018-08-24T08:44:46.865Z,93.43
2018-08-24T08:45:47.343Z,93.23
2018-08-24T08:46:47.819Z,93.38
2018-08-24T08:47:48.295Z,93.44
2018-08-24T08:48:48.774Z,93.53
2018-08-24T08:49:49.247Z,93.62
2018-08-24T08:50:49.720Z,93.78
2018-08-24T08:51:50.198Z,94.02
2018-08-24T08:52:50.673Z,94.26
2018-08-24T08:53:51.147Z,94.39
2018-08-24T08:54:51.623Z,94.42
2018-08-24T08:55:52.097Z,94.51
2018-08-24T08:56:52.573Z,94.62
2018-08-24T08:57:53.048Z,94.80
2018-08-24T08:58:53.519Z,95.04
2018-08-24T08:59:53.993Z,95.26
2018-08-24T09:00:54.468Z,95.43
2018-08-24T09:01:54.940Z,95.47
2018-08-24T09:02:55.416Z,95.52
2018-08-24T09:03:55.938Z,95.63
2018-08-24T09:04:56.363Z,95.63
2018-08-24T09:05:56.876Z,95.52
2018-08-24T09:06:57.306Z,95.48
2018-08-24T09:07:57.777Z,95.43
2018-08-24T09:08:58.250Z,95.38
2018-08-24T09:09:58.721Z,95.30
2018-08-24T09:10:59.195Z,95.36
2018-08-24T09:11:59.665Z,95.41
2018-08-24T09:13:00.221Z,95.27
2018-08-24T09:14:00.660Z,95.25
2018-08-24T09:15:01.285Z,95.23
2018-08-24T09:16:01.553Z,95.31
2018-08-24T09:17:02.024Z,95.39
2018-08-24T09:18:02.493Z,95.44
2018-08-24T09:19:02.965Z,95.54
2018-08-24T09:20:03.435Z,95.57
2018-08-24T09:21:03.907Z,95.56
2018-08-24T09:22:04.383Z,95.59
2018-08-24T09:23:04.847Z,95.63
2018-08-24T09:24:05.319Z,95.69
2018-08-24T09:25:05.790Z,95.76
2018-08-24T09:26:06.264Z,95.89
2018-08-24T09:27:06.734Z,95.99
2018-08-24T09:28:07.203Z,96.03
2018-08-24T09:29:07.723Z,96.10
2018-08-24T09:30:08.148Z,96.18
2018-08-24T09:31:08.617Z,96.25
2018-08-24T09:32:09.088Z,96.32
2018-08-24T09:33:09.562Z,96.34
2018-08-24T09:34:10.083Z,96.45
2018-08-24T09:35:10.503Z,96.50
2018-08-24T09:36:10.979Z,96.51
2018-08-24T09:37:11.449Z,96.57
2018-08-24T09:38:11.919Z,96.60
2018-08-24T09:39:12.393Z,96.61
2018-08-24T09:40:12.873Z,96.71
2018-08-24T09:41:13.341Z,96.70
2018-08-24T09:42:13.816Z,96.76
2018-08-24T09:43:14.285Z,96.79
2018-08-24T09:44:14.811Z,96.81
2018-08-24T09:45:15.234Z,96.85
2018-08-24T09:46:15.706Z,96.85
2018-08-24T09:47:16.183Z,96.91
2018-08-24T09:48:16.657Z,96.92
2018-08-24T09:49:17.181Z,96.94
2018-08-24T09:50:17.605Z,96.96
2018-08-24T09:51:18.081Z,97.02
2018-08-24T09:52:18.555Z,97.02
2018-08-24T09:53:19.030Z,97.07
2018-08-24T09:54:19.509Z,97.06
2018-08-24T09:55:19.981Z,97.06
2018-08-24T09:56:20.454Z,97.11
2018-08-24T09:57:20.930Z,97.13
2018-08-24T09:58:21.406Z,97.15
2018-08-24T09:59:21.877Z,97.14
2018-08-24T10:00:22.355Z,97.19
2018-08-24T10:01:22.831Z,97.19
2018-08-24T10:02:23.304Z,97.21
2018-08-24T10:03:23.778Z,97.22
2018-08-24T10:04:24.252Z,97.23
2018-08-24T10:05:24.727Z,97.26
2018-08-24T10:06:25.269Z,97.30
2018-08-24T10:07:25.674Z,97.31
2018-08-24T10:08:26.150Z,97.31
2018-08-24T10:09:26.623Z,97.31
2018-08-24T10:10:27.094Z,97.31
2018-08-24T10:11:27.568Z,97.35
2018-08-24T10:12:28.042Z,97.39
2018-08-24T10:13:28.516Z,97.36
2018-08-24T10:14:28.987Z,97.38
2018-08-24T10:15:29.461Z,97.39
2018-08-24T10:16:29.935Z,97.38
2018-08-24T10:17:30.410Z,97.42
2018-08-24T10:18:30.880Z,97.42
2018-08-24T10:19:31.353Z,97.45
2018-08-24T10:20:31.825Z,97.38
2018-08-24T10:21:32.296Z,97.43
2018-08-24T10:22:32.768Z,97.46
2018-08-24T10:23:33.240Z,97.45
2018-08-24T10:24:33.763Z,97.47
2018-08-24T10:25:34.184Z,97.48
2018-08-24T10:26:34.659Z,97.54
2018-08-24T10:27:35.129Z,97.50
2018-08-24T10:28:35.598Z,97.50
2018-08-24T10:29:36.076Z,97.52
2018-08-24T10:30:36.540Z,97.53
2018-08-24T10:31:37.018Z,97.54
2018-08-24T10:32:37.485Z,97.54
2018-08-24T10:33:38.010Z,97.56
2018-08-24T10:34:38.425Z,97.55
2018-08-24T10:35:38.896Z,97.54
2018-08-24T10:36:39.367Z,97.55
2018-08-24T10:37:39.838Z,97.58
2018-08-24T10:38:40.309Z,97.60
2018-08-24T10:39:40.781Z,97.63
2018-08-24T10:40:41.310Z,97.62
2018-08-24T10:41:41.773Z,97.66
2018-08-24T10:42:42.194Z,97.61
2018-08-24T10:43:42.666Z,97.63
2018-08-24T10:44:43.136Z,97.68
2018-08-24T10:45:43.608Z,97.65
2018-08-24T10:46:44.080Z,97.62
2018-08-24T10:47:44.551Z,97.59
2018-08-24T10:48:45.023Z,97.63
2018-08-24T10:49:45.500Z,97.67
2018-08-24T10:50:45.967Z,97.64
2018-08-24T10:51:46.441Z,97.66
2018-08-24T10:52:46.912Z,97.69
2018-08-24T10:53:47.384Z,97.74
2018-08-24T10:54:47.898Z,97.71
2018-08-24T10:55:48.455Z,97.68
2018-08-24T10:56:48.805Z,97.72
2018-08-24T10:57:49.277Z,97.74
2018-08-24T10:58:49.760Z,97.69
2018-08-24T10:59:50.224Z,97.75
2018-08-24T11:00:50.701Z,97.76
2018-08-24T11:01:51.186Z,97.73
2018-08-24T11:02:51.647Z,97.75
2018-08-24T11:03:52.124Z,97.76
2018-08-24T11:04:52.602Z,97.77
2018-08-24T11:05:53.073Z,97.78
2018-08-24T11:06:53.548Z,97.78
2018-08-24T11:07:54.025Z,97.84
2018-08-24T11:08:54.499Z,97.75
2018-08-24T11:09:54.972Z,97.79
2018-08-24T11:10:55.452Z,97.80
2018-08-24T11:11:55.921Z,97.79
2018-08-24T11:12:56.449Z,97.75
2018-08-24T11:13:56.871Z,97.77
2018-08-24T11:14:57.394Z,97.80
2018-08-24T11:15:57.820Z,97.80
2018-08-24T11:16:58.408Z,97.76
2018-08-24T11:17:58.770Z,97.80
2018-08-24T11:18:59.242Z,97.81
2018-08-24T11:19:59.717Z,97.81
2018-08-24T11:21:00.190Z,97.82
2018-08-24T11:22:00.666Z,97.82
2018-08-24T11:23:01.169Z,97.87
2018-08-24T11:24:01.614Z,97.87
2018-08-24T11:25:02.131Z,97.84
2018-08-24T11:26:02.612Z,97.85
2018-08-24T11:27:03.130Z,97.85
2018-08-24T11:28:03.507Z,97.86
2018-08-24T11:29:03.982Z,97.87
2018-08-24T11:30:04.503Z,97.88
2018-08-24T11:31:04.926Z,97.88
2018-08-24T11:32:05.398Z,97.83
2018-08-24T11:33:06.073Z,97.87
2018-08-24T11:34:06.394Z,97.88
2018-08-24T11:35:06.815Z,97.89
2018-08-24T11:36:07.381Z,97.86
2018-08-24T11:37:07.760Z,97.89
2018-08-24T11:38:08.235Z,97.86
2018-08-24T11:39:08.708Z,97.92
2018-08-24T11:40:09.227Z,97.90
2018-08-24T11:41:09.649Z,97.90
2018-08-24T11:42:10.127Z,97.90
2018-08-24T11:43:10.590Z,97.92
2018-08-24T11:44:11.060Z,97.94
2018-08-24T11:45:11.535Z,97.93
2018-08-24T11:46:12.003Z,97.96
2018-08-24T11:47:12.472Z,97.96
2018-08-24T11:48:12.948Z,97.98
2018-08-24T11:49:13.418Z,97.98
2018-08-24T11:50:13.887Z,97.97
2018-08-24T11:51:14.358Z,97.98
2018-08-24T11:52:14.829Z,97.97
2018-08-24T11:53:15.301Z,97.96
2018-08-24T11:54:15.819Z,97.99
2018-08-24T11:55:16.296Z,97.98
2018-08-24T11:56:16.714Z,97.99
2018-08-24T11:57:17.184Z,97.98
2018-08-24T11:58:17.655Z,98.00
2018-08-24T11:59:18.129Z,98.03
2018-08-24T12:00:18.601Z,97.99
2018-08-24T12:01:19.071Z,97.99
2018-08-24T12:02:19.543Z,97.96
2018-08-24T12:03:20.015Z,98.01
2018-08-24T12:04:20.486Z,97.99
2018-08-24T12:05:20.961Z,98.00
2018-08-24T12:06:21.433Z,98.03
2018-08-24T12:07:21.906Z,97.99
2018-08-24T12:08:22.455Z,98.02
2018-08-24T12:09:22.850Z,98.03
2018-08-24T12:10:23.327Z,98.04
2018-08-24T12:11:23.798Z,98.09
2018-08-24T12:12:24.331Z,98.03
2018-08-24T12:13:24.745Z,98.03
2018-08-24T12:14:25.245Z,98.02
2018-08-24T12:15:25.695Z,98.00
2018-08-24T12:16:26.167Z,98.00
2018-08-24T12:17:26.644Z,98.01
2018-08-24T12:18:27.185Z,97.99
2018-08-24T12:19:27.592Z,97.96
2018-08-24T12:20:28.067Z,98.01
2018-08-24T12:21:28.543Z,98.07
2018-08-24T12:22:29.016Z,98.06
2018-08-24T12:23:29.490Z,98.08
2018-08-24T12:24:30.022Z,98.09
2018-08-24T12:25:30.443Z,98.11
2018-08-24T12:26:30.915Z,98.09
2018-08-24T12:27:31.391Z,98.03
2018-08-24T12:28:31.868Z,98.05
2018-08-24T12:29:32.341Z,98.07
2018-08-24T12:30:32.815Z,98.06
2018-08-24T12:31:33.291Z,98.06
2018-08-24T12:32:33.764Z,98.10
2018-08-24T12:33:34.244Z,98.08
2018-08-24T12:34:34.718Z,98.11
2018-08-24T12:35:35.189Z,98.11
2018-08-24T12:36:35.660Z,98.11
2018-08-24T12:37:36.134Z,98.12
2018-08-24T12:38:36.608Z,98.08
2018-08-24T12:39:37.082Z,98.06
2018-08-24T12:40:37.555Z,98.10
2018-08-24T12:41:38.028Z,98.08
2018-08-24T12:42:38.503Z,98.10
2018-08-24T12:43:39.033Z,98.07
2018-08-24T12:44:39.448Z,98.08
2018-08-24T12:45:39.920Z,98.11
2018-08-24T12:46:40.394Z,98.11
2018-08-24T12:47:40.866Z,98.06
2018-08-24T12:48:41.339Z,98.11
2018-08-24T12:49:41.809Z,98.14
2018-08-24T12:50:42.283Z,98.12
2018-08-24T12:51:42.753Z,98.13
2018-08-24T12:52:43.225Z,98.14
2018-08-24T12:53:43.699Z,98.16
2018-08-24T12:54:44.173Z,98.12
2018-08-24T12:55:44.642Z,98.11
2018-08-24T12:56:45.112Z,98.14
2018-08-24T12:57:45.584Z,98.18
2018-08-24T12:58:46.053Z,98.18